Time;durP1;ratioP1;P1;durP2;ratioP2;P2;SDS_P1;SDS_P2;PMS_P1;PMS_P2;Temp;Humidity;BMP_temperature;BMP_pressure;BME280_temperature;BME280_humidity;BME280_pressure;Samples;Min_cycle;Max_cycle;Signal;HPM_P1;HPM_P2
2022/03/17 00:00:55;;;;;;;0.40;0.30;;;7.90;99.90;;;;;;4991976;28;20746;-74
2022/03/17 00:03:21;;;;;;;0.40;0.20;;;7.90;99.90;;;;;;4991464;28;20386;-74
2022/03/17 00:05:47;;;;;;;1.10;1.10;;;7.90;99.90;;;;;;4992137;28;20407;-74
2022/03/17 00:08:14;;;;;;;0.60;0.60;;;8.00;99.90;;;;;;4990931;28;20418;-74
2022/03/17 00:10:40;;;;;;;0.40;0.20;;;7.90;99.90;;;;;;5007663;28;20476;-75
2022/03/17 00:13:06;;;;;;;0.40;0.20;;;8.00;99.90;;;;;;5011423;28;20460;-74
2022/03/17 00:15:31;;;;;;;0.40;0.40;;;7.80;99.90;;;;;;5010769;28;20439;-74
2022/03/17 00:17:57;;;;;;;0.40;0.30;;;7.90;99.90;;;;;;5011499;28;20431;-74
2022/03/17 00:20:23;;;;;;;0.40;0.20;;;7.80;99.90;;;;;;5010595;28;20387;-74
2022/03/17 00:22:50;;;;;;;0.70;0.60;;;7.90;99.90;;;;;;5011665;28;20476;-74
2022/03/17 00:25:16;;;;;;;0.90;0.90;;;7.90;99.90;;;;;;5010645;28;20946;-74
2022/03/17 00:27:42;;;;;;;0.40;0.20;;;8.00;99.90;;;;;;5011120;28;20412;-74
2022/03/17 00:30:08;;;;;;;0.40;0.30;;;8.10;99.90;;;;;;5011500;28;20435;-74
2022/03/17 00:32:34;;;;;;;1.40;1.30;;;8.00;99.90;;;;;;5010420;28;20381;-74
2022/03/17 00:37:44;;;;;;;0.70;0.70;;;8.10;99.90;;;;;;5010014;28;20458;-74
2022/03/17 00:40:10;;;;;;;0.40;0.30;;;8.00;99.90;;;;;;5010919;28;20745;-75
2022/03/17 00:42:36;;;;;;;0.50;0.50;;;8.00;99.90;;;;;;5009304;28;20873;-74
2022/03/17 00:45:03;;;;;;;0.40;0.30;;;8.00;99.90;;;;;;5009426;28;20475;-74
2022/03/17 00:47:29;;;;;;;0.40;0.30;;;8.00;99.90;;;;;;5010274;28;20797;-74
2022/03/17 00:49:54;;;;;;;0.40;0.40;;;8.00;99.90;;;;;;5010332;28;20385;-74
2022/03/17 00:52:20;;;;;;;0.40;0.20;;;8.00;99.90;;;;;;5010780;28;20457;-74
2022/03/17 00:54:46;;;;;;;0.40;0.30;;;8.00;99.90;;;;;;5008796;28;20830;-74
2022/03/17 00:57:12;;;;;;;0.40;0.20;;;8.00;99.90;;;;;;5010801;28;20389;-74
2022/03/17 00:59:40;;;;;;;0.40;0.30;;;8.00;99.90;;;;;;5010370;28;20415;-74
2022/03/17 01:02:06;;;;;;;0.40;0.20;;;8.10;99.90;;;;;;5010775;28;20427;-75
2022/03/17 01:04:32;;;;;;;0.68;0.60;;;8.20;99.90;;;;;;5010830;28;20413;-75
2022/03/17 01:06:58;;;;;;;0.40;0.30;;;8.20;99.90;;;;;;5009879;28;20416;-75
2022/03/17 01:09:24;;;;;;;0.40;0.30;;;8.20;99.90;;;;;;5010373;28;20447;-75
2022/03/17 01:11:49;;;;;;;0.40;0.20;;;8.30;99.90;;;;;;5009962;28;20392;-75
2022/03/17 01:14:15;;;;;;;0.40;0.30;;;8.30;99.90;;;;;;5010796;28;20377;-76
2022/03/17 01:16:41;;;;;;;0.80;0.80;;;8.30;99.90;;;;;;5009474;28;20448;-76
2022/03/17 01:19:07;;;;;;;0.40;0.20;;;8.40;99.90;;;;;;5009581;28;20723;-73
2022/03/17 01:21:33;;;;;;;1.10;1.10;;;8.40;99.90;;;;;;5011034;28;20398;-76
2022/03/17 01:23:59;;;;;;;1.30;1.20;;;8.40;99.90;;;;;;5009676;28;20381;-75
2022/03/17 01:26:24;;;;;;;0.40;0.20;;;8.40;99.90;;;;;;5010451;28;20785;-75
2022/03/17 01:28:50;;;;;;;1.30;0.90;;;8.50;99.90;;;;;;5010311;28;20877;-74
2022/03/17 01:31:16;;;;;;;0.65;0.65;;;8.40;99.90;;;;;;5010816;28;20515;-74
2022/03/17 01:33:41;;;;;;;0.40;0.30;;;8.30;99.90;;;;;;5014051;28;20475;-75
2022/03/17 01:36:07;;;;;;;1.20;1.10;;;8.30;99.90;;;;;;5013161;28;20412;-74
2022/03/17 01:38:34;;;;;;;1.00;0.80;;;8.20;99.90;;;;;;5014501;28;20515;-74
2022/03/17 01:41:00;;;;;;;0.40;0.20;;;8.20;99.90;;;;;;5014209;28;20884;-74
2022/03/17 01:43:25;;;;;;;0.40;0.40;;;8.30;99.90;;;;;;5013638;28;21034;-74
2022/03/17 01:45:52;;;;;;;0.40;0.40;;;8.20;99.90;;;;;;5014064;28;20416;-74
2022/03/17 01:48:19;;;;;;;0.40;0.20;;;8.20;99.90;;;;;;5011575;28;20757;-74
2022/03/17 01:50:45;;;;;;;0.80;0.80;;;8.20;99.90;;;;;;5014313;28;20389;-74
2022/03/17 01:53:11;;;;;;;0.45;0.35;;;8.20;99.90;;;;;;5014409;28;20389;-74
2022/03/17 01:55:37;;;;;;;0.40;0.20;;;8.20;99.90;;;;;;5013637;28;20385;-74
2022/03/17 01:58:03;;;;;;;0.80;0.60;;;8.20;99.90;;;;;;5014115;28;20400;-74
2022/03/17 02:00:32;;;;;;;0.40;0.40;;;8.20;99.90;;;;;;5013343;28;20392;-74
2022/03/17 02:02:57;;;;;;;0.40;0.20;;;8.30;99.90;;;;;;5013641;28;20396;-74
2022/03/17 02:05:23;;;;;;;0.40;0.20;;;8.20;99.90;;;;;;5013547;28;20508;-74
2022/03/17 02:10:15;;;;;;;0.50;0.40;;;8.10;99.90;;;;;;5014105;28;20373;-74
2022/03/17 02:15:27;;;;;;;0.40;0.25;;;8.20;99.90;;;;;;5013638;28;20438;-75
2022/03/17 02:17:53;;;;;;;0.40;0.20;;;8.10;99.90;;;;;;5012923;28;20453;-74
2022/03/17 02:20:20;;;;;;;0.70;0.60;;;8.10;99.90;;;;;;5013484;28;20413;-74
2022/03/17 02:22:51;;;;;;;0.40;0.22;;;8.10;99.90;;;;;;5013156;28;20396;-73
2022/03/17 02:25:34;;;;;;;0.60;0.60;;;8.10;99.90;;;;;;5013587;28;20545;-73
2022/03/17 02:28:02;;;;;;;0.60;0.60;;;8.00;99.90;;;;;;5012798;28;20415;-74
2022/03/17 02:30:30;;;;;;;0.70;0.70;;;8.00;99.90;;;;;;5013472;28;20454;-74
2022/03/17 02:33:05;;;;;;;0.80;0.80;;;8.00;99.90;;;;;;5012289;28;20429;-75
2022/03/17 02:35:32;;;;;;;0.40;0.30;;;8.00;99.90;;;;;;5013354;28;20387;-74
2022/03/17 02:37:58;;;;;;;0.40;0.30;;;8.00;99.90;;;;;;5012363;28;20408;-74
2022/03/17 02:40:25;;;;;;;0.40;0.20;;;8.10;99.90;;;;;;5013298;28;20388;-74
2022/03/17 02:42:52;;;;;;;0.90;0.90;;;8.10;99.90;;;;;;5013345;28;20400;-74
2022/03/17 02:45:18;;;;;;;0.40;0.20;;;8.10;99.90;;;;;;5012680;28;20417;-74
2022/03/17 02:47:44;;;;;;;0.40;0.20;;;8.20;99.90;;;;;;5013326;28;20719;-74
2022/03/17 02:50:10;;;;;;;0.40;0.20;;;8.20;99.90;;;;;;5012713;28;20392;-74
2022/03/17 02:52:37;;;;;;;0.40;0.20;;;8.20;99.90;;;;;;5013161;28;20387;-74
2022/03/17 02:55:03;;;;;;;0.40;0.30;;;8.20;99.90;;;;;;5012652;28;20396;-74
2022/03/17 02:57:28;;;;;;;0.40;0.20;;;8.30;99.90;;;;;;5012740;28;20493;-74
2022/03/17 02:59:54;;;;;;;0.40;0.30;;;8.30;99.90;;;;;;5012413;28;20397;-74
2022/03/17 03:02:21;;;;;;;0.40;0.20;;;8.20;99.90;;;;;;5010687;28;20377;-74
2022/03/17 03:04:47;;;;;;;0.40;0.30;;;8.20;99.90;;;;;;5012459;28;20420;-74
2022/03/17 03:07:12;;;;;;;0.40;0.30;;;8.10;99.90;;;;;;5012412;28;20745;-74
2022/03/17 03:09:38;;;;;;;0.40;0.20;;;8.10;99.90;;;;;;5005045;28;20406;-74
2022/03/17 03:12:05;;;;;;;0.40;0.20;;;8.20;99.90;;;;;;4993257;28;20846;-74
2022/03/17 03:14:31;;;;;;;0.40;0.20;;;8.10;99.90;;;;;;4991016;28;20406;-75
2022/03/17 03:16:57;;;;;;;0.90;0.90;;;8.10;99.90;;;;;;4993174;28;20879;-74
2022/03/17 03:19:23;;;;;;;0.50;0.50;;;8.10;99.90;;;;;;4991939;28;20405;-74
2022/03/17 03:21:48;;;;;;;0.60;0.60;;;8.00;99.90;;;;;;4992679;28;20390;-74
2022/03/17 03:24:15;;;;;;;0.50;0.50;;;8.10;99.90;;;;;;4992843;28;20397;-74
2022/03/17 03:26:41;;;;;;;0.40;0.40;;;8.00;99.90;;;;;;4992282;28;20894;-74
2022/03/17 03:29:27;;;;;;;0.40;0.20;;;8.00;99.90;;;;;;4992910;28;20394;-74
2022/03/17 03:31:59;;;;;;;0.40;0.40;;;8.10;99.90;;;;;;4992358;28;20493;-74
2022/03/17 03:34:26;;;;;;;0.40;0.30;;;8.10;99.90;;;;;;4992551;28;20892;-74
2022/03/17 03:39:38;;;;;;;1.00;0.93;;;8.10;99.90;;;;;;4992487;28;20409;-74
2022/03/17 03:42:05;;;;;;;0.40;0.20;;;8.20;99.90;;;;;;4992330;28;20379;-74
2022/03/17 03:44:31;;;;;;;0.40;0.20;;;8.00;99.90;;;;;;4992666;28;20413;-74
2022/03/17 03:46:57;;;;;;;0.40;0.20;;;8.10;99.90;;;;;;4991427;28;20909;-74
2022/03/17 03:49:23;;;;;;;0.40;0.20;;;8.00;99.90;;;;;;4992474;28;20386;-74
2022/03/17 03:51:49;;;;;;;0.40;0.30;;;8.10;99.90;;;;;;4991945;28;20383;-74
2022/03/17 03:54:18;;;;;;;0.65;0.65;;;8.10;99.90;;;;;;4991843;28;20382;-73
2022/03/17 03:56:56;;;;;;;0.50;0.50;;;8.10;99.90;;;;;;4992641;28;20394;-73
2022/03/17 03:59:25;;;;;;;0.40;0.20;;;8.10;99.90;;;;;;4990054;28;20402;-74
2022/03/17 04:02:00;;;;;;;0.40;0.20;;;8.10;99.90;;;;;;4992415;28;20472;-73
2022/03/17 04:04:27;;;;;;;0.40;0.20;;;8.00;99.90;;;;;;4992225;28;20784;-73
2022/03/17 04:07:02;;;;;;;0.40;0.20;;;7.90;99.90;;;;;;4992165;28;20410;-73
2022/03/17 04:09:30;;;;;;;0.90;0.90;;;8.00;99.90;;;;;;4997688;28;20854;-74
2022/03/17 04:11:56;;;;;;;0.40;0.20;;;7.90;99.90;;;;;;5011417;28;20554;-74
2022/03/17 04:14:23;;;;;;;0.40;0.30;;;7.90;99.90;;;;;;5010791;28;20393;-74
2022/03/17 04:16:50;;;;;;;0.40;0.30;;;7.80;99.90;;;;;;5011344;28;20900;-74
2022/03/17 04:19:16;;;;;;;0.80;0.80;;;7.80;99.90;;;;;;5011014;28;20389;-73
2022/03/17 04:21:42;;;;;;;0.40;0.20;;;7.90;99.90;;;;;;5011208;28;20815;-73
2022/03/17 04:24:08;;;;;;;0.40;0.20;;;7.80;99.90;;;;;;5011763;28;20430;-74
2022/03/17 04:26:34;;;;;;;0.40;0.20;;;7.80;99.90;;;;;;5010216;28;21012;-76
2022/03/17 04:29:00;;;;;;;0.40;0.30;;;7.80;99.90;;;;;;5010363;28;20392;-74
2022/03/17 04:31:26;;;;;;;0.40;0.20;;;7.80;99.90;;;;;;5009336;28;20400;-73
2022/03/17 04:33:52;;;;;;;0.50;0.40;;;7.90;99.90;;;;;;5011643;28;20865;-74
2022/03/17 04:36:18;;;;;;;0.40;0.20;;;7.90;99.90;;;;;;5010420;28;20764;-74
2022/03/17 04:38:45;;;;;;;0.40;0.30;;;7.80;99.90;;;;;;5011214;28;20399;-73
2022/03/17 04:41:10;;;;;;;0.40;0.20;;;7.80;99.90;;;;;;5011480;28;20730;-74
2022/03/17 04:43:37;;;;;;;0.40;0.20;;;7.80;99.90;;;;;;5010849;28;20501;-74
2022/03/17 04:46:04;;;;;;;0.40;0.20;;;7.70;99.90;;;;;;5011640;28;20758;-75
2022/03/17 04:48:29;;;;;;;0.68;0.68;;;7.80;99.90;;;;;;5010683;28;20393;-74
2022/03/17 04:50:55;;;;;;;0.40;0.30;;;7.80;99.90;;;;;;5011791;28;20435;-75
2022/03/17 04:53:27;;;;;;;0.40;0.20;;;7.80;99.90;;;;;;5010965;28;20915;-74
2022/03/17 04:56:06;;;;;;;0.40;0.20;;;7.90;99.90;;;;;;5010629;28;20764;-74
2022/03/17 04:58:33;;;;;;;0.40;0.30;;;8.00;99.90;;;;;;5010903;28;20432;-74
2022/03/17 05:01:00;;;;;;;0.40;0.30;;;8.00;99.90;;;;;;5010996;28;20388;-74
2022/03/17 05:03:27;;;;;;;0.40;0.30;;;8.10;99.90;;;;;;5011697;28;20392;-74
2022/03/17 05:05:53;;;;;;;0.40;0.20;;;8.10;99.90;;;;;;5009498;28;20413;-74
2022/03/17 05:08:20;;;;;;;0.40;0.20;;;8.20;99.90;;;;;;5010695;28;20459;-75
2022/03/17 05:10:47;;;;;;;0.40;0.20;;;8.10;99.90;;;;;;4993926;28;20390;-74
2022/03/17 05:13:14;;;;;;;0.40;0.20;;;8.10;99.90;;;;;;4991696;28;20481;-74
2022/03/17 05:15:40;;;;;;;0.40;0.20;;;8.10;99.90;;;;;;4991270;28;20389;-75
2022/03/17 05:18:07;;;;;;;0.40;0.30;;;8.20;99.90;;;;;;4990768;28;20426;-74
2022/03/17 05:20:37;;;;;;;0.40;0.20;;;8.10;99.90;;;;;;4991208;28;20391;-74
2022/03/17 05:23:08;;;;;;;0.40;0.20;;;8.00;99.90;;;;;;4990789;28;20387;-74
2022/03/17 05:25:34;;;;;;;0.40;0.20;;;8.00;99.90;;;;;;4991525;28;20412;-74
2022/03/17 05:27:59;;;;;;;0.40;0.30;;;8.00;99.90;;;;;;4990704;28;20464;-74
2022/03/17 05:30:26;;;;;;;0.40;0.20;;;7.90;99.90;;;;;;4991539;28;21196;-75
2022/03/17 05:32:53;;;;;;;0.40;0.20;;;8.00;99.90;;;;;;4991427;28;20394;-74
2022/03/17 05:35:18;;;;;;;0.40;0.30;;;8.00;99.90;;;;;;4991452;28;20386;-75
2022/03/17 05:37:44;;;;;;;1.00;0.70;;;8.00;99.90;;;;;;4991369;28;20414;-75
2022/03/17 05:40:15;;;;;;;0.50;0.43;;;8.00;99.90;;;;;;4990584;28;20477;-74
2022/03/17 05:42:43;;;;;;;0.40;0.20;;;8.00;99.90;;;;;;4991392;28;20382;-74
2022/03/17 05:45:09;;;;;;;0.40;0.20;;;8.00;99.90;;;;;;4990341;28;20410;-74
2022/03/17 05:47:40;;;;;;;0.40;0.20;;;8.00;99.90;;;;;;4989903;28;20410;-74
2022/03/17 05:50:09;;;;;;;0.70;0.70;;;8.10;99.90;;;;;;4990502;28;20390;-75
2022/03/17 05:52:39;;;;;;;0.40;0.33;;;8.20;99.90;;;;;;4991193;28;20390;-74
2022/03/17 05:55:06;;;;;;;0.40;0.20;;;8.20;99.90;;;;;;4990563;28;20387;-74
2022/03/17 05:57:34;;;;;;;0.40;0.20;;;8.20;99.90;;;;;;4991202;28;20390;-75
2022/03/17 05:59:59;;;;;;;0.40;0.30;;;8.30;99.90;;;;;;4993373;28;20387;-75
2022/03/17 06:02:25;;;;;;;0.95;0.80;;;8.30;99.90;;;;;;4990564;28;20445;-74
2022/03/17 06:04:51;;;;;;;0.40;0.20;;;8.20;99.90;;;;;;4991066;28;20751;-74
2022/03/17 06:07:17;;;;;;;0.40;0.20;;;8.30;99.90;;;;;;4990105;28;20391;-74
2022/03/17 06:09:42;;;;;;;0.40;0.20;;;8.40;99.90;;;;;;4999521;28;20467;-72
2022/03/17 06:12:09;;;;;;;0.40;0.40;;;8.50;99.90;;;;;;5010310;28;20737;-74
2022/03/17 06:14:35;;;;;;;0.40;0.20;;;8.50;99.90;;;;;;5009559;28;21015;-74
2022/03/17 06:17:01;;;;;;;0.40;0.30;;;8.60;99.90;;;;;;5010807;28;20391;-74
2022/03/17 06:19:26;;;;;;;0.40;0.40;;;8.60;99.90;;;;;;5013357;28;20385;-74
2022/03/17 06:21:52;;;;;;;0.40;0.30;;;8.50;99.90;;;;;;5013801;28;20431;-74
2022/03/17 06:24:18;;;;;;;0.40;0.20;;;8.60;99.90;;;;;;5013500;28;20377;-75
2022/03/17 06:26:44;;;;;;;0.40;0.20;;;8.50;99.90;;;;;;5012732;28;20448;-75
2022/03/17 06:29:09;;;;;;;0.40;0.30;;;8.60;99.90;;;;;;5014107;28;20431;-74
2022/03/17 06:31:39;;;;;;;0.40;0.30;;;8.40;99.90;;;;;;5011653;28;20472;-74
2022/03/17 06:34:06;;;;;;;0.40;0.20;;;8.50;99.90;;;;;;5014041;28;20451;-74
2022/03/17 06:36:32;;;;;;;0.40;0.20;;;8.50;99.90;;;;;;5013015;28;20389;-74
2022/03/17 06:38:58;;;;;;;0.40;0.20;;;8.50;99.90;;;;;;5013391;28;20416;-74
2022/03/17 06:41:23;;;;;;;0.40;0.30;;;8.70;99.90;;;;;;5013603;28;20872;-75
2022/03/17 06:43:49;;;;;;;0.70;0.70;;;8.70;99.90;;;;;;5012997;28;20460;-74
2022/03/17 06:46:15;;;;;;;1.00;0.70;;;8.70;99.90;;;;;;5013333;28;20448;-75
2022/03/17 06:48:41;;;;;;;0.43;0.40;;;8.70;99.90;;;;;;5012749;28;20422;-74
2022/03/17 06:51:06;;;;;;;0.40;0.30;;;8.80;99.90;;;;;;5013357;28;20397;-74
2022/03/17 06:53:32;;;;;;;0.40;0.30;;;8.80;99.90;;;;;;5013397;28;20391;-76
2022/03/17 06:55:58;;;;;;;0.40;0.30;;;8.80;99.90;;;;;;5012103;28;20396;-75
2022/03/17 06:58:24;;;;;;;0.40;0.40;;;8.90;99.90;;;;;;5013267;28;20862;-75
2022/03/17 07:00:58;;;;;;;0.40;0.30;;;8.90;99.90;;;;;;5012273;28;20392;-74
2022/03/17 07:03:24;;;;;;;0.50;0.50;;;8.80;99.90;;;;;;5011752;28;20415;-75
2022/03/17 07:05:50;;;;;;;0.40;0.30;;;8.90;99.90;;;;;;5011986;28;20409;-74
2022/03/17 07:08:16;;;;;;;1.00;1.00;;;8.90;99.90;;;;;;5012870;28;20416;-75
2022/03/17 07:10:41;;;;;;;0.50;0.50;;;8.90;99.90;;;;;;5012885;28;20389;-75
2022/03/17 07:13:07;;;;;;;0.40;0.20;;;9.00;99.90;;;;;;5012640;28;20400;-74
2022/03/17 07:15:34;;;;;;;0.40;0.20;;;9.00;99.90;;;;;;5013162;28;20443;-74
2022/03/17 07:17:59;;;;;;;0.40;0.20;;;9.10;99.90;;;;;;5011075;28;20396;-74
2022/03/17 07:20:25;;;;;;;0.40;0.20;;;9.10;99.90;;;;;;5013128;28;20865;-74
2022/03/17 07:22:51;;;;;;;0.87;0.83;;;9.20;99.90;;;;;;5012916;28;20431;-74
2022/03/17 07:25:17;;;;;;;0.50;0.50;;;9.20;99.90;;;;;;5012097;28;20506;-74
2022/03/17 07:27:45;;;;;;;0.40;0.30;;;9.30;99.90;;;;;;5012540;28;20463;-75
2022/03/17 07:30:19;;;;;;;0.40;0.30;;;9.20;99.90;;;;;;5011091;28;20766;-74
2022/03/17 07:32:52;;;;;;;1.00;1.00;;;9.30;99.90;;;;;;5012587;28;20812;-74
2022/03/17 07:35:18;;;;;;;0.70;0.70;;;9.50;99.90;;;;;;5011942;28;20494;-74
2022/03/17 07:37:44;;;;;;;0.80;0.80;;;9.50;99.90;;;;;;5012571;28;20389;-74
2022/03/17 07:40:10;;;;;;;0.40;0.30;;;9.60;99.90;;;;;;5012309;28;20389;-74
2022/03/17 07:42:36;;;;;;;0.40;0.40;;;9.70;99.90;;;;;;5011636;28;20405;-74
2022/03/17 07:45:02;;;;;;;0.40;0.20;;;9.90;99.90;;;;;;5012271;28;20392;-75
2022/03/17 07:47:28;;;;;;;0.40;0.20;;;10.00;99.90;;;;;;5010503;28;20741;-74
2022/03/17 07:49:54;;;;;;;0.40;0.25;;;10.10;99.90;;;;;;5012069;28;20475;-74
2022/03/17 07:52:20;;;;;;;0.80;0.80;;;10.10;99.90;;;;;;5011838;28;20391;-74
2022/03/17 07:54:46;;;;;;;0.40;0.30;;;10.10;99.90;;;;;;5012180;28;20471;-75
2022/03/17 07:57:13;;;;;;;0.40;0.30;;;10.10;99.90;;;;;;5012306;28;20389;-75
2022/03/17 07:59:40;;;;;;;0.40;0.20;;;10.30;99.90;;;;;;5011400;28;20873;-76
2022/03/17 08:02:06;;;;;;;1.30;0.50;;;10.50;99.90;;;;;;5012298;28;20408;-75
2022/03/17 08:04:32;;;;;;;0.40;0.20;;;10.40;99.90;;;;;;5010951;28;20738;-75
2022/03/17 08:07:00;;;;;;;0.40;0.20;;;10.50;99.90;;;;;;5012219;28;20489;-75
2022/03/17 08:09:27;;;;;;;0.40;0.40;;;10.70;99.90;;;;;;5006178;28;20411;-75
2022/03/17 08:11:53;;;;;;;0.50;0.50;;;10.80;99.90;;;;;;4991779;28;20859;-75
2022/03/17 08:14:19;;;;;;;0.40;0.20;;;10.90;99.90;;;;;;4992729;28;20390;-75
2022/03/17 08:16:45;;;;;;;0.40;0.25;;;10.90;99.90;;;;;;4991630;28;20394;-75
2022/03/17 08:19:11;;;;;;;0.40;0.40;;;11.00;99.90;;;;;;4991483;28;20456;-74
2022/03/17 08:21:39;;;;;;;0.80;0.80;;;10.90;99.90;;;;;;4991895;28;20423;-75
2022/03/17 08:24:06;;;;;;;0.40;0.30;;;11.10;99.90;;;;;;4992265;28;20417;-74
2022/03/17 08:26:32;;;;;;;6.70;1.50;;;11.10;99.90;;;;;;4992138;28;20414;-75
2022/03/17 08:28:59;;;;;;;0.80;0.80;;;11.20;99.90;;;;;;4991338;28;20783;-75
2022/03/17 08:31:25;;;;;;;0.50;0.50;;;11.20;99.90;;;;;;4992107;28;20406;-74
2022/03/17 08:33:51;;;;;;;0.40;0.20;;;11.40;99.90;;;;;;4991212;28;20390;-74
2022/03/17 08:36:17;;;;;;;0.50;0.50;;;11.30;99.90;;;;;;4992035;28;20783;-76
2022/03/17 08:38:42;;;;;;;0.40;0.20;;;11.30;99.90;;;;;;4991647;28;20414;-75
2022/03/17 08:41:08;;;;;;;0.70;0.70;;;11.40;99.90;;;;;;4991355;28;20382;-76
2022/03/17 08:43:34;;;;;;;0.70;0.70;;;11.60;99.90;;;;;;4991746;28;20744;-75
2022/03/17 08:51:29;;;;;;;0.50;0.40;;;11.80;99.90;;;;;;4991837;28;20481;-75
2022/03/17 08:53:56;;;;;;;0.40;0.30;;;11.70;99.90;;;;;;4991650;28;20814;-75
2022/03/17 08:56:22;;;;;;;0.40;0.30;;;12.00;99.90;;;;;;4991646;28;20422;-74
2022/03/17 08:58:48;;;;;;;0.40;0.30;;;12.00;99.90;;;;;;4991323;28;20394;-74
2022/03/17 09:01:13;;;;;;;0.40;0.22;;;12.10;99.90;;;;;;4990562;28;20387;-74
2022/03/17 09:03:40;;;;;;;0.40;0.30;;;12.20;99.90;;;;;;4991449;28;20415;-74
2022/03/17 09:06:05;;;;;;;0.40;0.40;;;12.20;99.90;;;;;;4990925;28;20449;-74
2022/03/17 09:08:31;;;;;;;0.40;0.20;;;12.10;99.90;;;;;;4991141;28;20846;-74
2022/03/17 09:10:57;;;;;;;1.20;1.20;;;12.50;99.90;;;;;;5009065;28;20483;-74
2022/03/17 09:13:28;;;;;;;0.80;0.80;;;12.50;99.90;;;;;;5010021;28;20459;-74
2022/03/17 09:15:55;;;;;;;0.40;0.30;;;12.20;99.90;;;;;;5011039;28;20399;-74
2022/03/17 09:18:22;;;;;;;1.20;1.00;;;12.10;99.90;;;;;;5009642;28;20450;-74
2022/03/17 09:20:48;;;;;;;0.50;0.50;;;12.20;99.90;;;;;;5010990;28;20388;-74
2022/03/17 09:23:16;;;;;;;0.40;0.30;;;12.40;99.90;;;;;;5010236;28;20421;-74
2022/03/17 09:25:43;;;;;;;0.47;0.45;;;12.40;99.90;;;;;;5011167;28;20797;-74
2022/03/17 09:28:08;;;;;;;0.40;0.40;;;12.40;99.90;;;;;;5010411;28;20432;-74
2022/03/17 09:30:35;;;;;;;0.57;0.57;;;12.50;99.90;;;;;;5010164;28;20384;-74
2022/03/17 09:33:03;;;;;;;0.40;0.40;;;12.60;99.90;;;;;;5010873;28;20385;-74
2022/03/17 09:35:29;;;;;;;1.00;1.00;;;12.80;99.90;;;;;;5010003;28;20385;-74
2022/03/17 09:37:54;;;;;;;0.80;0.80;;;13.00;99.90;;;;;;5010700;28;20408;-74
2022/03/17 09:40:20;;;;;;;0.40;0.28;;;13.00;99.90;;;;;;5009674;28;20392;-74
2022/03/17 09:42:47;;;;;;;1.00;1.00;;;13.00;99.90;;;;;;5010431;28;20460;-74
2022/03/17 09:45:14;;;;;;;2.20;2.00;;;13.20;99.90;;;;;;5010770;28;20392;-74
2022/03/17 09:47:42;;;;;;;0.80;0.80;;;13.30;99.90;;;;;;5009894;28;20443;-74
2022/03/17 09:50:10;;;;;;;0.50;0.50;;;13.50;99.90;;;;;;5010543;28;20384;-74
2022/03/17 09:52:38;;;;;;;0.80;0.80;;;13.40;99.90;;;;;;5011204;28;20416;-74
2022/03/17 09:55:04;;;;;;;1.63;1.52;;;13.70;99.90;;;;;;5014164;28;20468;-74
2022/03/17 09:57:31;;;;;;;0.40;0.20;;;14.00;99.90;;;;;;5014195;28;20936;-74
2022/03/17 09:59:58;;;;;;;1.00;1.00;;;14.00;99.90;;;;;;5013272;28;20860;-74
2022/03/17 10:02:25;;;;;;;0.40;0.40;;;13.80;99.90;;;;;;5014396;28;20392;-74
2022/03/17 10:04:51;;;;;;;0.40;0.30;;;13.90;99.90;;;;;;5013494;28;20423;-74
2022/03/17 10:07:20;;;;;;;0.50;0.50;;;13.80;99.90;;;;;;5014013;28;20455;-74
2022/03/17 10:09:47;;;;;;;0.60;0.60;;;13.50;99.90;;;;;;5003400;28;20437;-74
2022/03/17 10:12:16;;;;;;;0.70;0.70;;;13.70;99.90;;;;;;4994597;28;20444;-74
2022/03/17 10:14:47;;;;;;;0.40;0.30;;;13.70;99.90;;;;;;4994633;28;20383;-74
2022/03/17 10:17:37;;;;;;;0.47;0.47;;;13.70;99.90;;;;;;4994658;28;20394;-73
2022/03/17 10:20:18;;;;;;;0.40;0.20;;;13.80;99.90;;;;;;4992202;28;20441;-74
2022/03/17 10:22:51;;;;;;;0.40;0.30;;;13.90;99.90;;;;;;4994387;28;20490;-74
2022/03/17 10:25:24;;;;;;;0.40;0.30;;;14.10;99.90;;;;;;4994286;28;20398;-73
2022/03/17 10:27:54;;;;;;;1.17;1.08;;;14.10;99.90;;;;;;4994465;28;20390;-73
2022/03/17 10:30:23;;;;;;;0.40;0.30;;;14.00;99.90;;;;;;4994589;28;20387;-75
2022/03/17 10:33:03;;;;;;;0.40;0.40;;;14.30;99.90;;;;;;4994336;28;20387;-75
2022/03/17 10:35:45;;;;;;;0.50;0.50;;;14.40;99.90;;;;;;4994698;28;20448;-74
2022/03/17 10:38:19;;;;;;;0.40;0.30;;;14.20;99.90;;;;;;4993367;28;20418;-74
2022/03/17 10:40:59;;;;;;;0.80;0.80;;;14.20;99.90;;;;;;4993840;28;20398;-74
2022/03/17 10:43:25;;;;;;;0.40;0.30;;;14.30;99.90;;;;;;4993534;28;20411;-73
2022/03/17 10:46:11;;;;;;;0.52;0.52;;;14.40;99.90;;;;;;4993711;28;20468;-74
2022/03/17 10:48:59;;;;;;;0.90;0.90;;;14.40;99.90;;;;;;4994071;28;20386;-74
2022/03/17 10:51:44;;;;;;;0.40;0.20;;;14.60;99.90;;;;;;4992938;28;20890;-73
2022/03/17 10:54:20;;;;;;;1.00;0.90;;;14.20;99.90;;;;;;4993036;28;20433;-74
2022/03/17 10:57:02;;;;;;;1.50;1.20;;;14.30;99.90;;;;;;4993592;28;20870;-74
2022/03/17 10:59:44;;;;;;;2.60;0.80;;;14.30;99.90;;;;;;4992994;28;20426;-73
2022/03/17 11:02:25;;;;;;;0.90;0.80;;;14.60;99.90;;;;;;4993684;28;20383;-73
2022/03/17 11:04:51;;;;;;;0.60;0.40;;;14.70;99.90;;;;;;4992434;28;20387;-73
2022/03/17 11:07:19;;;;;;;1.20;1.10;;;14.90;99.90;;;;;;4992788;28;20438;-73
2022/03/17 11:09:46;;;;;;;0.40;0.30;;;14.80;99.90;;;;;;5001799;28;20405;-74
2022/03/17 11:12:20;;;;;;;0.70;0.57;;;15.00;99.90;;;;;;5013050;28;20381;-73
2022/03/17 11:14:51;;;;;;;0.40;0.28;;;15.20;99.90;;;;;;5012751;28;20925;-73
2022/03/17 11:17:26;;;;;;;1.40;0.90;;;15.00;99.90;;;;;;5012587;28;20753;-74
2022/03/17 11:19:54;;;;;;;0.85;0.57;;;15.00;99.90;;;;;;5012970;28;20385;-74
2022/03/17 11:22:29;;;;;;;0.63;0.60;;;15.20;99.90;;;;;;5012964;28;20373;-74
2022/03/17 11:25:25;;;;;;;0.40;0.40;;;15.40;99.90;;;;;;5012892;28;20901;-74
2022/03/17 11:27:57;;;;;;;0.80;0.80;;;15.40;99.90;;;;;;5013098;28;20401;-72
2022/03/17 11:30:40;;;;;;;0.70;0.70;;;15.40;99.90;;;;;;5012639;28;20389;-74
2022/03/17 11:33:26;;;;;;;1.65;1.33;;;15.20;99.90;;;;;;5012778;28;20464;-74
2022/03/17 11:36:01;;;;;;;0.88;0.88;;;15.10;99.90;;;;;;5010542;28;21022;-75
2022/03/17 11:38:36;;;;;;;0.88;0.88;;;15.00;99.90;;;;;;5012756;28;20397;-74
2022/03/17 11:41:07;;;;;;;0.87;0.87;;;15.50;99.90;;;;;;5012986;28;20388;-74
2022/03/17 11:44:00;;;;;;;1.48;1.38;;;15.30;99.90;;;;;;5012553;28;20425;-73
2022/03/17 11:46:38;;;;;;;0.40;0.30;;;14.90;99.90;;;;;;5012348;28;20440;-72
2022/03/17 11:49:19;;;;;;;0.50;0.40;;;14.50;99.90;;;;;;5012168;28;20468;-72
2022/03/17 11:52:07;;;;;;;0.80;0.80;;;14.40;99.90;;;;;;5011274;28;20385;-71
2022/03/17 11:54:32;;;;;;;2.20;1.13;;;14.20;99.90;;;;;;5012431;28;20385;-72
2022/03/17 11:57:00;;;;;;;0.60;0.60;;;14.40;99.90;;;;;;5011056;28;20885;-70
2022/03/17 11:59:30;;;;;;;0.40;0.40;;;14.20;99.90;;;;;;5012188;28;20776;-72
2022/03/17 12:01:56;;;;;;;0.60;0.60;;;14.20;99.90;;;;;;5011276;28;20408;-71
2022/03/17 12:04:31;;;;;;;1.20;1.20;;;14.10;99.90;;;;;;5011801;28;20392;-72
2022/03/17 12:07:13;;;;;;;0.40;0.30;;;14.10;99.90;;;;;;5011189;28;20420;-72
2022/03/17 12:09:39;;;;;;;1.10;0.90;;;13.70;99.90;;;;;;5003850;28;20410;-72
2022/03/17 12:12:25;;;;;;;1.10;1.00;;;13.80;99.90;;;;;;4991669;28;20378;-73
2022/03/17 12:14:58;;;;;;;0.60;0.60;;;14.00;99.90;;;;;;4991694;28;20477;-73
2022/03/17 12:17:26;;;;;;;0.70;0.70;;;14.10;99.90;;;;;;4992526;28;20405;-73
2022/03/17 12:20:06;;;;;;;1.30;1.30;;;14.20;99.90;;;;;;4992251;28;20378;-73
2022/03/17 12:22:31;;;;;;;0.40;0.40;;;13.90;99.90;;;;;;4991957;28;20391;-74
2022/03/17 12:25:03;;;;;;;1.00;1.00;;;14.00;99.90;;;;;;4992125;28;20818;-74
2022/03/17 12:27:30;;;;;;;0.70;0.70;;;14.00;99.90;;;;;;4991927;28;20414;-73
2022/03/17 12:30:01;;;;;;;0.40;0.20;;;14.10;99.90;;;;;;4991735;28;20985;-72
2022/03/17 12:32:30;;;;;;;1.17;0.80;;;13.90;99.90;;;;;;4991833;28;20402;-72
2022/03/17 12:34:58;;;;;;;1.50;1.10;;;14.10;99.90;;;;;;4991976;28;20465;-73
2022/03/17 12:37:27;;;;;;;0.50;0.50;;;14.10;99.90;;;;;;4990969;28;20934;-74
2022/03/17 12:39:56;;;;;;;1.50;1.10;;;14.10;99.90;;;;;;4991910;28;20382;-73
2022/03/17 12:42:27;;;;;;;0.70;0.60;;;14.20;99.90;;;;;;4989968;28;20786;-72
2022/03/17 12:44:55;;;;;;;1.70;1.10;;;14.10;99.90;;;;;;4999391;28;20393;-72
2022/03/17 12:47:24;;;;;;;0.40;0.30;;;14.30;99.90;;;;;;5030566;28;20962;-71
2022/03/17 12:49:51;;;;;;;0.80;0.80;;;14.20;99.90;;;;;;5016381;28;20389;-73
2022/03/17 12:52:24;;;;;;;0.70;0.70;;;14.20;99.90;;;;;;5008655;28;20547;-71
2022/03/17 12:54:55;;;;;;;0.90;0.80;;;14.10;99.90;;;;;;5003489;28;20377;-73
2022/03/17 12:57:25;;;;;;;0.40;0.30;;;14.20;99.90;;;;;;5015021;28;20409;-71
2022/03/17 12:59:52;;;;;;;0.50;0.30;;;13.90;99.90;;;;;;5031188;28;20614;-73
2022/03/17 13:02:19;;;;;;;2.30;1.80;;;13.70;99.90;;;;;;5019289;28;20753;-73
2022/03/17 13:07:49;;;;;;;0.90;0.90;;;13.90;99.90;;;;;;5010917;28;20416;-73
2022/03/17 13:10:26;;;;;;;5.10;1.60;;;14.00;99.90;;;;;;5011246;28;20381;-73
2022/03/17 13:15:36;;;;;;;0.40;0.30;;;13.80;99.90;;;;;;5010265;28;20391;-72
2022/03/17 13:18:04;;;;;;;1.90;1.80;;;13.70;99.90;;;;;;5011016;28;20381;-73
2022/03/17 13:20:30;;;;;;;2.10;0.88;;;13.90;99.90;;;;;;5009139;28;20420;-74